Time;durP1;ratioP1;P1;durP2;ratioP2;P2;SDS_P1;SDS_P2;PMS_P1;PMS_P2;Temp;Humidity;BMP_temperature;BMP_pressure;BME280_temperature;BME280_humidity;BME280_pressure;Samples;Min_cycle;Max_cycle;Signal;HPM_P1;HPM_P2
2023/10/25 00:02:21;;;;;;;7.03;2.90;;;12.80;79.40;;;;;;5106391;28;20055;-66
2023/10/25 00:04:47;;;;;;;7.43;3.35;;;12.80;80.10;;;;;;5097349;28;20149;-66
2023/10/25 00:07:13;;;;;;;9.13;3.65;;;12.70;79.40;;;;;;5099878;28;20027;-66
2023/10/25 00:09:39;;;;;;;7.97;3.45;;;12.70;79.50;;;;;;5099797;28;20372;-66
2023/10/25 00:12:05;;;;;;;8.00;3.15;;;12.70;79.50;;;;;;5102798;28;20031;-66
2023/10/25 00:14:30;;;;;;;7.85;3.58;;;12.70;79.50;;;;;;5099266;28;20452;-66
2023/10/25 00:16:56;;;;;;;6.93;3.35;;;12.60;79.40;;;;;;5100540;28;20032;-66
2023/10/25 00:19:22;;;;;;;6.78;2.92;;;12.60;79.50;;;;;;5084185;28;20021;-66
2023/10/25 00:21:47;;;;;;;11.65;3.88;;;12.60;79.50;;;;;;5090210;28;20105;-66
2023/10/25 00:24:13;;;;;;;8.55;3.40;;;12.60;79.50;;;;;;5105133;28;20432;-66
2023/10/25 00:26:39;;;;;;;6.00;3.03;;;12.60;79.50;;;;;;5098744;28;20028;-66
2023/10/25 00:29:05;;;;;;;7.90;3.58;;;12.60;79.50;;;;;;5093456;28;20028;-66
2023/10/25 00:31:30;;;;;;;8.85;3.45;;;12.60;79.50;;;;;;5098541;28;20020;-66
2023/10/25 00:33:57;;;;;;;6.80;3.00;;;12.60;79.50;;;;;;5107541;28;20425;-66
2023/10/25 00:36:23;;;;;;;10.10;3.63;;;12.60;79.50;;;;;;5095738;28;20096;-66
2023/10/25 00:38:48;;;;;;;7.97;3.35;;;12.60;79.50;;;;;;5087831;28;20032;-66
2023/10/25 00:41:15;;;;;;;8.52;3.13;;;12.60;79.50;;;;;;5096379;28;20080;-66
2023/10/25 00:43:40;;;;;;;9.43;3.28;;;12.60;79.60;;;;;;5073150;28;20043;-66
2023/10/25 00:46:32;;;;;;;9.32;3.03;;;12.50;79.50;;;;;;5098303;28;20023;-66
2023/10/25 00:48:59;;;;;;;8.63;3.45;;;12.50;79.50;;;;;;5093619;28;20031;-66
2023/10/25 00:51:26;;;;;;;6.18;2.95;;;12.50;79.60;;;;;;5093556;28;20453;-66
2023/10/25 00:53:54;;;;;;;7.40;3.60;;;12.50;79.60;;;;;;5104655;28;20016;-66
2023/10/25 00:56:24;;;;;;;7.60;3.13;;;12.50;79.60;;;;;;5102423;28;20140;-66
2023/10/25 00:58:55;;;;;;;7.13;3.20;;;12.50;79.60;;;;;;5108000;28;20118;-66
2023/10/25 01:01:26;;;;;;;7.40;3.05;;;12.40;79.50;;;;;;5104645;28;20114;-66
2023/10/25 01:03:52;;;;;;;8.27;3.50;;;12.40;79.50;;;;;;5090623;28;20114;-66
2023/10/25 01:06:18;;;;;;;7.57;3.30;;;12.40;79.50;;;;;;5105354;28;20038;-66
2023/10/25 01:08:44;;;;;;;7.72;3.40;;;12.30;79.50;;;;;;5096777;28;20032;-66
2023/10/25 01:11:11;;;;;;;8.10;3.10;;;12.30;79.50;;;;;;5099485;28;20064;-66
2023/10/25 01:13:37;;;;;;;6.68;3.03;;;12.30;79.50;;;;;;5097095;28;20080;-66
2023/10/25 01:16:04;;;;;;;7.07;3.60;;;12.30;79.50;;;;;;5093300;28;20028;-66
2023/10/25 01:18:30;;;;;;;9.32;3.13;;;12.30;79.40;;;;;;5096881;28;20325;-66
2023/10/25 01:20:56;;;;;;;8.43;2.95;;;12.20;80.00;;;;;;5099162;28;20024;-66
2023/10/25 01:23:21;;;;;;;8.50;2.88;;;12.20;79.40;;;;;;5106838;28;20367;-66
2023/10/25 01:25:47;;;;;;;7.85;2.75;;;12.10;79.40;;;;;;5102329;28;20121;-66
2023/10/25 01:28:13;;;;;;;7.57;2.90;;;12.10;79.40;;;;;;5099482;28;20040;-66
2023/10/25 01:30:40;;;;;;;7.80;3.50;;;12.10;79.40;;;;;;5097625;28;20039;-66
2023/10/25 01:33:06;;;;;;;7.60;3.22;;;12.10;79.40;;;;;;5104037;28;20117;-66
2023/10/25 01:35:33;;;;;;;9.80;3.60;;;12.10;79.40;;;;;;5087678;28;20032;-66
2023/10/25 01:37:59;;;;;;;8.20;3.35;;;12.10;79.40;;;;;;5111438;28;20115;-66
2023/10/25 01:40:25;;;;;;;6.18;3.08;;;12.10;79.50;;;;;;5115557;27;20107;-66
2023/10/25 01:42:53;;;;;;;6.85;3.03;;;12.10;79.50;;;;;;5114445;28;20023;-66
2023/10/25 01:45:21;;;;;;;9.18;3.20;;;12.10;79.40;;;;;;5117027;28;20027;-66
2023/10/25 01:47:47;;;;;;;8.93;3.00;;;12.10;79.40;;;;;;5098918;28;20028;-66
2023/10/25 01:50:13;;;;;;;7.65;2.72;;;12.10;79.40;;;;;;5111280;28;20023;-66
2023/10/25 01:52:39;;;;;;;8.77;3.03;;;12.10;79.40;;;;;;5100197;28;20107;-66
2023/10/25 01:55:05;;;;;;;7.80;3.72;;;12.10;79.30;;;;;;5103804;28;20055;-66
2023/10/25 01:57:30;;;;;;;6.40;2.90;;;12.00;79.30;;;;;;5113521;28;20465;-66
2023/10/25 01:59:56;;;;;;;14.68;3.22;;;12.00;79.30;;;;;;5100422;28;20372;-66
2023/10/25 02:02:22;;;;;;;6.40;2.90;;;12.00;79.20;;;;;;5113562;28;20035;-66
2023/10/25 02:04:48;;;;;;;6.03;2.83;;;11.90;79.20;;;;;;5087083;28;20360;-66
2023/10/25 02:07:14;;;;;;;8.65;3.47;;;11.90;79.20;;;;;;5084204;28;20035;-66
2023/10/25 02:09:40;;;;;;;7.13;3.10;;;11.90;79.20;;;;;;5106896;28;20023;-66
2023/10/25 02:12:06;;;;;;;7.63;3.05;;;11.90;79.20;;;;;;5088047;28;20181;-66
2023/10/25 02:14:32;;;;;;;7.45;3.05;;;11.80;79.10;;;;;;5104798;28;20031;-66
2023/10/25 02:16:57;;;;;;;8.85;3.10;;;11.80;79.10;;;;;;5089342;28;20097;-66
2023/10/25 02:19:24;;;;;;;7.80;2.83;;;11.70;79.10;;;;;;5103488;28;20027;-66
2023/10/25 02:21:49;;;;;;;6.15;2.90;;;11.70;79.10;;;;;;5091803;28;20016;-66
2023/10/25 02:24:15;;;;;;;7.70;3.53;;;11.70;79.10;;;;;;5083941;28;20449;-66
2023/10/25 02:26:42;;;;;;;7.30;3.13;;;11.70;79.10;;;;;;5087846;28;20034;-66
2023/10/25 02:29:08;;;;;;;7.90;3.00;;;11.70;79.00;;;;;;5087993;28;20021;-66
2023/10/25 02:31:34;;;;;;;6.32;2.92;;;11.70;79.00;;;;;;5073363;28;20490;-66
2023/10/25 02:34:00;;;;;;;7.78;3.40;;;11.60;78.90;;;;;;5089635;28;20330;-66
2023/10/25 02:36:26;;;;;;;7.60;2.95;;;11.60;78.90;;;;;;5081648;28;20367;-66
2023/10/25 02:38:52;;;;;;;6.72;2.95;;;11.60;78.90;;;;;;5090322;28;20032;-66
2023/10/25 02:41:18;;;;;;;7.47;3.10;;;11.50;78.70;;;;;;5082209;28;20085;-66
2023/10/25 02:43:44;;;;;;;8.35;4.32;;;11.50;78.70;;;;;;5103814;28;20016;-66
2023/10/25 02:46:11;;;;;;;8.63;3.17;;;11.50;78.70;;;;;;5112608;28;20020;-66
2023/10/25 02:48:37;;;;;;;6.55;3.00;;;11.50;78.70;;;;;;5106124;28;20061;-66
2023/10/25 02:51:03;;;;;;;6.70;3.45;;;11.50;78.70;;;;;;5091682;28;20106;-66
2023/10/25 02:53:29;;;;;;;7.20;3.33;;;11.50;78.70;;;;;;5091635;28;20313;-66
2023/10/25 02:56:03;;;;;;;7.63;2.78;;;11.50;78.70;;;;;;5082317;28;20023;-66
2023/10/25 02:58:29;;;;;;;8.55;3.15;;;11.40;78.50;;;;;;5086892;28;20032;-65
2023/10/25 03:00:56;;;;;;;7.03;2.90;;;11.40;78.50;;;;;;5097958;28;20167;-66
2023/10/25 03:03:30;;;;;;;6.13;2.90;;;11.40;78.50;;;;;;5109420;28;20451;-66
2023/10/25 03:05:57;;;;;;;7.07;2.92;;;11.40;78.50;;;;;;5097375;28;20361;-66
2023/10/25 03:08:23;;;;;;;7.32;3.40;;;11.40;78.60;;;;;;5082447;28;20032;-66
2023/10/25 03:10:49;;;;;;;6.50;3.13;;;11.30;78.50;;;;;;5093381;28;20039;-66
2023/10/25 03:13:15;;;;;;;7.57;3.45;;;11.30;78.40;;;;;;5106818;28;20032;-66
2023/10/25 03:15:41;;;;;;;7.43;3.25;;;11.30;78.40;;;;;;5102350;28;20031;-66
2023/10/25 03:18:07;;;;;;;8.10;3.92;;;11.30;78.40;;;;;;5104089;28;20104;-66
2023/10/25 03:20:33;;;;;;;6.78;3.15;;;11.30;78.40;;;;;;5097016;28;20050;-66
2023/10/25 03:23:01;;;;;;;7.13;3.28;;;11.20;78.40;;;;;;5103102;28;20020;-66
2023/10/25 03:25:26;;;;;;;8.30;3.83;;;11.20;78.30;;;;;;5095906;28;20123;-66
2023/10/25 03:27:52;;;;;;;8.73;3.17;;;11.20;78.40;;;;;;5077516;28;20103;-66
2023/10/25 03:30:18;;;;;;;7.85;3.42;;;11.20;78.50;;;;;;5101288;28;20046;-66
2023/10/25 03:32:44;;;;;;;9.32;4.05;;;11.20;78.50;;;;;;5099852;28;20020;-66
2023/10/25 03:35:11;;;;;;;7.65;3.38;;;11.20;78.50;;;;;;5114251;28;20462;-66
2023/10/25 03:37:39;;;;;;;9.07;3.58;;;11.20;78.50;;;;;;5106010;28;20067;-66
2023/10/25 03:40:14;;;;;;;9.77;3.85;;;11.20;78.50;;;;;;5098917;28;20024;-66
2023/10/25 03:42:40;;;;;;;7.28;3.10;;;11.20;78.50;;;;;;5097846;28;20024;-66
2023/10/25 03:45:07;;;;;;;9.77;3.60;;;11.10;78.50;;;;;;5095376;28;20038;-66
2023/10/25 03:47:34;;;;;;;7.43;3.45;;;11.10;78.50;;;;;;5105194;28;20024;-66
2023/10/25 03:50:01;;;;;;;8.02;3.95;;;11.10;78.50;;;;;;5109021;28;20036;-65
2023/10/25 03:52:28;;;;;;;7.10;3.97;;;11.10;78.50;;;;;;5107245;28;20040;-66
2023/10/25 03:54:54;;;;;;;7.38;4.10;;;11.10;78.50;;;;;;5097359;28;20031;-66
2023/10/25 03:57:20;;;;;;;10.40;4.90;;;11.10;78.50;;;;;;5089709;28;20017;-65
2023/10/25 03:59:46;;;;;;;9.05;4.65;;;11.10;78.50;;;;;;5092000;28;20040;-66
2023/10/25 04:02:12;;;;;;;9.20;4.53;;;11.10;78.50;;;;;;5105516;27;20070;-66
2023/10/25 04:04:37;;;;;;;9.00;4.53;;;11.10;78.50;;;;;;5105876;28;20216;-65
2023/10/25 04:07:03;;;;;;;8.95;3.78;;;11.10;78.60;;;;;;5094323;28;20114;-65
2023/10/25 04:09:29;;;;;;;8.50;3.88;;;11.10;78.60;;;;;;5106144;28;20031;-66
2023/10/25 04:11:55;;;;;;;9.00;3.53;;;11.10;78.60;;;;;;5109375;28;20023;-66
2023/10/25 04:14:20;;;;;;;8.30;3.25;;;11.10;78.70;;;;;;5091885;28;20349;-65
2023/10/25 04:16:46;;;;;;;8.98;3.85;;;11.10;78.70;;;;;;5094972;28;20040;-66
2023/10/25 04:19:12;;;;;;;7.95;3.38;;;11.10;78.70;;;;;;5101734;28;20042;-66
2023/10/25 04:21:38;;;;;;;7.82;3.88;;;11.10;78.70;;;;;;5093674;28;20023;-65
2023/10/25 04:24:04;;;;;;;7.70;3.35;;;11.00;78.70;;;;;;5098533;28;20039;-66
2023/10/25 04:26:30;;;;;;;7.95;3.45;;;11.00;78.60;;;;;;5084698;27;20075;-65
2023/10/25 04:28:56;;;;;;;9.50;4.20;;;11.00;78.70;;;;;;5076821;28;20024;-66
2023/10/25 04:31:21;;;;;;;7.45;3.30;;;11.00;78.70;;;;;;5108942;28;20169;-66
2023/10/25 04:33:47;;;;;;;11.93;3.58;;;11.00;78.60;;;;;;5099191;28;20127;-66
2023/10/25 04:36:13;;;;;;;8.57;4.00;;;11.00;78.60;;;;;;5108334;28;20024;-66
2023/10/25 04:38:39;;;;;;;7.93;3.80;;;11.00;78.50;;;;;;5100682;28;20389;-66
2023/10/25 04:41:05;;;;;;;8.20;3.70;;;11.00;78.60;;;;;;5097579;28;20111;-66
2023/10/25 04:43:30;;;;;;;7.50;3.40;;;11.00;78.60;;;;;;5101733;28;20510;-66
2023/10/25 04:45:56;;;;;;;6.85;3.05;;;11.00;78.60;;;;;;5104399;28;20024;-66
2023/10/25 04:48:22;;;;;;;8.32;4.03;;;10.90;78.60;;;;;;5105059;28;20405;-65
2023/10/25 04:50:48;;;;;;;9.70;3.67;;;10.90;78.60;;;;;;5103729;28;20032;-66
2023/10/25 04:53:13;;;;;;;7.75;3.83;;;10.90;78.60;;;;;;5106041;28;20032;-66
2023/10/25 04:55:44;;;;;;;8.18;3.55;;;10.90;78.60;;;;;;5099974;28;20027;-65
2023/10/25 04:58:10;;;;;;;8.20;3.55;;;10.90;78.60;;;;;;5107521;28;20105;-65
2023/10/25 05:00:36;;;;;;;8.10;4.10;;;10.90;78.70;;;;;;5101623;28;20044;-66
2023/10/25 05:03:04;;;;;;;7.03;3.30;;;10.90;78.70;;;;;;5105702;28;20452;-66
2023/10/25 05:05:32;;;;;;;8.95;3.40;;;10.90;78.80;;;;;;5100998;28;20213;-65
2023/10/25 05:07:59;;;;;;;6.78;3.20;;;10.90;78.80;;;;;;5089851;28;20025;-66
2023/10/25 05:10:25;;;;;;;7.68;4.13;;;11.00;78.80;;;;;;5100951;28;20353;-65
2023/10/25 05:12:51;;;;;;;8.43;3.50;;;11.00;78.90;;;;;;5090565;28;20035;-65
2023/10/25 05:15:18;;;;;;;9.45;3.75;;;11.00;78.90;;;;;;5088663;28;20044;-65
2023/10/25 05:17:46;;;;;;;7.75;3.72;;;11.00;79.00;;;;;;5094315;28;20035;-65
2023/10/25 05:20:13;;;;;;;6.03;3.10;;;11.00;78.90;;;;;;5096855;28;20160;-65
2023/10/25 05:22:41;;;;;;;8.38;3.70;;;11.00;79.00;;;;;;5106919;28;20023;-65
2023/10/25 05:25:09;;;;;;;8.88;3.67;;;11.00;78.90;;;;;;5073908;28;20103;-65
2023/10/25 05:27:36;;;;;;;6.80;3.25;;;11.00;79.00;;;;;;5075878;28;20020;-65
2023/10/25 05:30:04;;;;;;;8.27;3.63;;;11.00;79.00;;;;;;5081407;28;20034;-65
2023/10/25 05:32:31;;;;;;;10.40;4.45;;;11.00;79.10;;;;;;5084560;28;20063;-64
2023/10/25 05:34:58;;;;;;;8.93;4.35;;;11.00;79.20;;;;;;5077568;28;20089;-64
2023/10/25 05:37:25;;;;;;;8.30;4.13;;;11.00;79.20;;;;;;5092307;28;20036;-64
2023/10/25 05:39:51;;;;;;;9.38;4.20;;;11.00;79.20;;;;;;5072784;28;20067;-64
2023/10/25 05:42:22;;;;;;;9.20;3.75;;;11.00;79.30;;;;;;5075130;28;20390;-64
2023/10/25 05:44:48;;;;;;;9.45;4.25;;;11.10;79.30;;;;;;5074437;28;20517;-65
2023/10/25 05:47:17;;;;;;;8.45;4.47;;;11.00;79.30;;;;;;5078764;28;20475;-66
2023/10/25 05:49:43;;;;;;;10.77;4.15;;;11.00;79.40;;;;;;5076450;28;20024;-66
2023/10/25 05:52:10;;;;;;;8.38;4.05;;;11.10;79.50;;;;;;5088221;28;20025;-66
2023/10/25 05:54:37;;;;;;;9.00;4.85;;;11.10;79.40;;;;;;5088214;28;20372;-66
2023/10/25 05:57:06;;;;;;;8.13;5.07;;;11.10;79.50;;;;;;5083145;28;20111;-66
2023/10/25 05:59:32;;;;;;;8.15;4.65;;;11.10;79.50;;;;;;5077267;28;20054;-66
2023/10/25 06:02:22;;;;;;;8.77;4.38;;;11.10;79.60;;;;;;5083263;28;20016;-66
2023/10/25 06:04:49;;;;;;;8.32;4.00;;;11.20;79.60;;;;;;5082133;28;20020;-66
2023/10/25 06:07:15;;;;;;;10.00;4.57;;;11.20;79.70;;;;;;5091370;28;20082;-66
2023/10/25 06:09:41;;;;;;;11.98;4.05;;;11.20;79.80;;;;;;5106181;28;20048;-66
2023/10/25 06:12:08;;;;;;;9.40;4.85;;;11.20;79.80;;;;;;5095186;28;20020;-67
2023/10/25 06:14:34;;;;;;;6.93;3.75;;;11.20;79.90;;;;;;5094784;28;20028;-66
2023/10/25 06:17:00;;;;;;;8.52;4.10;;;11.20;79.90;;;;;;5094266;28;20043;-66
2023/10/25 06:19:27;;;;;;;7.55;3.97;;;11.30;80.00;;;;;;5094517;28;20110;-66
2023/10/25 06:21:53;;;;;;;10.77;4.00;;;11.30;79.90;;;;;;5093216;28;20115;-67
2023/10/25 06:24:19;;;;;;;7.82;4.00;;;11.30;79.90;;;;;;5093263;28;20058;-67
2023/10/25 06:26:45;;;;;;;8.25;4.00;;;11.30;79.90;;;;;;5093672;28;20027;-67
2023/10/25 06:29:11;;;;;;;11.43;4.57;;;11.40;80.00;;;;;;5087540;28;20107;-67
2023/10/25 06:31:37;;;;;;;8.77;3.72;;;11.40;80.00;;;;;;5093295;28;20024;-67
2023/10/25 06:34:03;;;;;;;14.38;4.22;;;11.40;80.00;;;;;;5090632;28;20046;-67
2023/10/25 06:36:30;;;;;;;9.32;3.80;;;11.40;80.00;;;;;;5092328;28;20081;-67
2023/10/25 06:38:56;;;;;;;8.25;3.97;;;11.40;80.00;;;;;;5095129;28;20043;-68
2023/10/25 06:41:23;;;;;;;7.68;3.58;;;11.40;80.00;;;;;;5087148;28;20048;-67
2023/10/25 06:43:49;;;;;;;8.85;3.78;;;11.40;80.00;;;;;;5086718;28;20293;-67
2023/10/25 06:46:15;;;;;;;9.50;4.05;;;11.40;80.00;;;;;;5082812;28;20399;-67
2023/10/25 06:48:42;;;;;;;8.52;3.75;;;11.50;80.00;;;;;;5077563;28;20028;-67
2023/10/25 06:51:08;;;;;;;8.65;3.75;;;11.50;80.00;;;;;;5086334;28;20043;-66
2023/10/25 06:53:38;;;;;;;10.35;4.47;;;11.50;80.00;;;;;;5084233;28;20016;-66
2023/10/25 06:56:05;;;;;;;10.95;4.28;;;11.50;80.00;;;;;;5094787;28;20023;-65
2023/10/25 06:58:31;;;;;;;7.35;3.92;;;11.50;80.00;;;;;;5093989;28;20069;-66
2023/10/25 07:00:58;;;;;;;7.63;4.43;;;11.60;80.10;;;;;;5093547;28;20039;-66
2023/10/25 07:03:34;;;;;;;9.40;4.40;;;11.60;80.10;;;;;;5094719;28;20024;-66
2023/10/25 07:06:04;;;;;;;10.38;4.88;;;11.60;80.10;;;;;;5076884;28;20085;-66
2023/10/25 07:08:33;;;;;;;9.35;4.60;;;11.70;80.10;;;;;;5096048;28;20023;-66
2023/10/25 07:10:59;;;;;;;8.73;4.47;;;11.70;80.20;;;;;;5095240;28;20028;-66
2023/10/25 07:13:26;;;;;;;8.43;4.35;;;11.70;80.20;;;;;;5098177;28;20020;-66
2023/10/25 07:15:54;;;;;;;11.48;4.78;;;11.70;80.20;;;;;;5095117;28;20021;-66
2023/10/25 07:18:19;;;;;;;9.07;3.88;;;11.70;80.10;;;;;;5095294;28;20040;-66
2023/10/25 07:20:45;;;;;;;8.10;5.00;;;11.80;80.20;;;;;;5094643;28;20437;-66
2023/10/25 07:23:11;;;;;;;8.85;5.10;;;11.80;80.10;;;;;;5089725;28;20019;-66
2023/10/25 07:25:38;;;;;;;7.80;4.35;;;11.80;80.10;;;;;;5088683;28;20024;-67
2023/10/25 07:28:07;;;;;;;7.97;4.68;;;11.90;80.10;;;;;;5099675;28;20101;-67
2023/10/25 07:30:34;;;;;;;8.35;4.47;;;11.90;80.20;;;;;;5072112;28;20063;-66
2023/10/25 07:33:00;;;;;;;10.95;5.43;;;12.00;80.20;;;;;;5091484;28;20502;-66
2023/10/25 07:35:26;;;;;;;10.13;5.38;;;12.00;80.10;;;;;;5089859;28;20067;-66
2023/10/25 07:37:51;;;;;;;9.00;4.95;;;12.00;80.20;;;;;;5090496;28;20040;-66
2023/10/25 07:40:17;;;;;;;11.55;5.80;;;12.10;80.20;;;;;;5080042;28;20436;-66
2023/10/25 07:42:43;;;;;;;8.93;5.50;;;12.10;80.20;;;;;;5089707;28;20207;-66
2023/10/25 07:45:09;;;;;;;10.98;6.00;;;12.20;80.20;;;;;;5089461;28;20059;-66
2023/10/25 07:47:35;;;;;;;11.52;5.28;;;12.20;80.20;;;;;;5087433;28;20028;-66
2023/10/25 07:50:01;;;;;;;11.18;4.97;;;12.20;80.20;;;;;;5087665;28;20445;-66
2023/10/25 07:52:30;;;;;;;10.98;5.40;;;12.20;80.20;;;;;;5086482;28;20035;-66
2023/10/25 07:54:55;;;;;;;8.77;5.30;;;12.30;80.30;;;;;;5086919;28;20028;-66
2023/10/25 07:57:22;;;;;;;9.30;5.32;;;12.30;80.30;;;;;;5089425;28;20034;-66
2023/10/25 07:59:48;;;;;;;10.65;5.90;;;12.30;80.30;;;;;;5089442;28;20048;-66
2023/10/25 08:02:14;;;;;;;8.90;5.75;;;12.30;80.30;;;;;;5084538;28;20043;-67
2023/10/25 08:04:41;;;;;;;8.95;5.53;;;12.20;80.30;;;;;;5088991;28;20036;-66
2023/10/25 08:07:06;;;;;;;8.07;5.32;;;12.30;80.40;;;;;;5090472;28;20398;-66
2023/10/25 08:09:32;;;;;;;10.90;5.55;;;12.30;80.40;;;;;;5087506;28;20120;-66
2023/10/25 08:11:58;;;;;;;9.90;5.57;;;12.30;80.50;;;;;;5074719;28;20139;-66
2023/10/25 08:14:24;;;;;;;9.05;5.13;;;12.30;80.50;;;;;;5112633;28;20352;-66
2023/10/25 08:16:49;;;;;;;9.90;5.30;;;12.30;80.60;;;;;;5108601;28;20162;-66
2023/10/25 08:19:15;;;;;;;10.05;5.13;;;12.30;80.60;;;;;;5085037;28;20035;-66
2023/10/25 08:21:41;;;;;;;10.70;5.68;;;12.30;80.60;;;;;;5110514;28;20035;-66
2023/10/25 08:24:07;;;;;;;8.73;5.05;;;12.30;80.60;;;;;;5089085;28;20024;-66
2023/10/25 08:26:39;;;;;;;9.40;4.88;;;12.30;80.60;;;;;;5089276;28;20389;-66
2023/10/25 08:29:06;;;;;;;9.45;4.68;;;12.30;80.70;;;;;;5082242;28;20020;-66
2023/10/25 08:31:32;;;;;;;7.22;3.88;;;12.30;80.70;;;;;;5086621;28;20019;-66
2023/10/25 08:33:59;;;;;;;9.68;5.00;;;12.30;80.70;;;;;;5085114;28;20032;-66
2023/10/25 08:36:25;;;;;;;8.88;4.40;;;12.40;80.80;;;;;;5083091;28;20096;-66
2023/10/25 08:38:53;;;;;;;10.23;5.13;;;12.40;80.80;;;;;;5087639;28;20020;-66
2023/10/25 08:41:19;;;;;;;9.13;4.20;;;12.40;80.80;;;;;;5085301;28;20028;-67
2023/10/25 08:43:46;;;;;;;8.63;4.38;;;12.40;80.80;;;;;;5062261;28;20025;-66
2023/10/25 08:46:14;;;;;;;9.40;4.32;;;12.40;80.80;;;;;;5087919;28;20040;-66
2023/10/25 08:48:40;;;;;;;10.98;4.15;;;12.40;80.80;;;;;;5087548;28;20020;-67
2023/10/25 08:51:08;;;;;;;10.98;4.30;;;12.40;80.90;;;;;;5091844;28;20351;-66
2023/10/25 08:53:35;;;;;;;9.50;4.78;;;12.50;81.60;;;;;;5073363;28;20016;-66
2023/10/25 08:56:01;;;;;;;8.40;4.30;;;12.50;80.90;;;;;;5089260;28;20352;-66
2023/10/25 08:58:27;;;;;;;9.10;4.07;;;12.50;80.90;;;;;;5089157;28;20038;-66
2023/10/25 09:00:57;;;;;;;8.80;4.32;;;12.50;80.90;;;;;;5088906;28;20082;-66
2023/10/25 09:03:30;;;;;;;8.75;3.63;;;12.60;81.00;;;;;;5090585;28;20123;-66
2023/10/25 09:06:00;;;;;;;7.70;3.45;;;12.60;80.90;;;;;;5092996;28;20047;-67
2023/10/25 09:08:27;;;;;;;7.32;3.78;;;12.60;80.90;;;;;;5085182;28;20056;-66
2023/10/25 09:11:02;;;;;;;8.38;4.43;;;12.60;80.90;;;;;;5084819;28;20032;-66
2023/10/25 09:13:33;;;;;;;7.22;3.38;;;12.70;80.90;;;;;;5086734;28;20024;-66
2023/10/25 09:16:13;;;;;;;13.75;3.65;;;12.70;80.90;;;;;;5088774;28;20044;-66
2023/10/25 09:18:41;;;;;;;12.02;4.25;;;12.70;80.80;;;;;;5070825;28;20093;-66
2023/10/25 09:21:10;;;;;;;10.93;4.57;;;12.70;80.90;;;;;;5088385;28;20024;-67
2023/10/25 09:23:35;;;;;;;9.13;4.07;;;12.70;80.90;;;;;;5087067;28;20042;-66
2023/10/25 09:26:12;;;;;;;9.40;4.05;;;12.70;80.90;;;;;;5082429;28;20036;-66
2023/10/25 09:28:38;;;;;;;9.80;4.13;;;12.70;80.90;;;;;;5092870;28;20021;-66
2023/10/25 09:31:25;;;;;;;9.57;3.75;;;12.70;81.00;;;;;;5085860;28;20034;-66
2023/10/25 09:33:51;;;;;;;7.82;4.28;;;12.80;81.00;;;;;;5088685;28;20126;-67
2023/10/25 09:36:19;;;;;;;9.23;4.00;;;12.80;81.10;;;;;;5086634;28;20032;-66
2023/10/25 09:38:45;;;;;;;8.90;4.47;;;12.80;81.10;;;;;;5068684;28;20424;-67
2023/10/25 09:41:22;;;;;;;11.07;4.60;;;12.80;81.10;;;;;;5085521;28;20119;-66
2023/10/25 09:43:56;;;;;;;7.50;4.47;;;12.80;81.10;;;;;;5091151;28;20027;-67
2023/10/25 09:46:23;;;;;;;7.18;4.10;;;12.80;81.10;;;;;;5063462;28;20024;-66
2023/10/25 09:49:05;;;;;;;7.38;4.20;;;12.80;81.10;;;;;;5088184;28;20402;-66
2023/10/25 09:51:39;;;;;;;10.55;4.50;;;12.80;81.20;;;;;;5085355;28;20028;-66
2023/10/25 09:54:12;;;;;;;8.57;4.13;;;12.80;81.20;;;;;;5073367;28;20091;-66
2023/10/25 09:56:39;;;;;;;8.73;4.28;;;12.80;81.10;;;;;;5086408;28;20046;-67
2023/10/25 09:59:07;;;;;;;8.27;4.53;;;12.90;81.10;;;;;;5088845;28;20168;-66
2023/10/25 10:01:34;;;;;;;8.77;4.65;;;12.90;81.10;;;;;;5090116;28;20417;-67
2023/10/25 10:04:21;;;;;;;8.23;4.65;;;12.90;81.20;;;;;;5088781;28;20101;-67
2023/10/25 10:07:06;;;;;;;10.95;5.60;;;12.90;81.20;;;;;;5073199;28;20066;-67
2023/10/25 10:09:39;;;;;;;9.50;5.00;;;12.90;81.20;;;;;;5093253;28;20054;-67
2023/10/25 10:12:06;;;;;;;9.00;5.15;;;12.90;81.30;;;;;;5099628;28;20062;-67
2023/10/25 10:14:37;;;;;;;9.07;4.60;;;12.90;81.30;;;;;;5096444;28;20427;-67
2023/10/25 10:17:09;;;;;;;11.70;4.97;;;12.90;81.40;;;;;;5092924;28;20410;-67
2023/10/25 10:19:49;;;;;;;10.85;4.60;;;12.90;81.40;;;;;;5072711;28;20407;-66
2023/10/25 10:22:17;;;;;;;9.43;4.15;;;12.90;81.40;;;;;;5088817;28;20425;-66
2023/10/25 10:24:58;;;;;;;9.98;4.15;;;12.90;81.40;;;;;;5086725;28;20523;-67
2023/10/25 10:27:42;;;;;;;11.93;5.03;;;13.00;81.50;;;;;;5085159;28;20039;-66
2023/10/25 10:30:34;;;;;;;10.73;4.53;;;13.00;81.40;;;;;;5072487;28;20032;-67
2023/10/25 10:33:02;;;;;;;9.63;4.63;;;13.00;81.40;;;;;;5090787;28;20024;-66
2023/10/25 10:35:28;;;;;;;11.93;5.20;;;13.00;81.40;;;;;;5073022;28;20382;-67
2023/10/25 10:37:57;;;;;;;9.63;5.00;;;13.00;81.40;;;;;;5095547;28;22813;-66
2023/10/25 10:40:24;;;;;;;9.48;4.18;;;13.00;81.50;;;;;;5086754;28;20028;-67
2023/10/25 10:42:50;;;;;;;9.93;5.15;;;13.00;81.50;;;;;;5069482;28;20028;-67
2023/10/25 10:45:19;;;;;;;11.27;4.72;;;13.00;81.50;;;;;;5088919;28;20397;-67
2023/10/25 10:48:12;;;;;;;7.95;3.97;;;13.00;81.50;;;;;;5087324;28;20085;-68
2023/10/25 10:50:40;;;;;;;9.52;4.45;;;13.00;81.50;;;;;;5084378;28;20074;-67
2023/10/25 10:53:06;;;;;;;10.50;4.75;;;13.00;81.60;;;;;;5076881;28;20127;-67
2023/10/25 10:55:32;;;;;;;9.73;5.00;;;13.00;81.70;;;;;;5089083;28;20032;-68
2023/10/25 10:57:58;;;;;;;8.65;4.18;;;13.00;81.70;;;;;;5089916;28;20024;-67
2023/10/25 11:00:25;;;;;;;10.63;4.45;;;13.00;81.70;;;;;;5086259;28;20452;-67
2023/10/25 11:02:53;;;;;;;8.48;4.20;;;13.00;81.70;;;;;;5101259;28;20024;-67
2023/10/25 11:05:25;;;;;;;10.32;4.53;;;13.00;81.70;;;;;;5094589;28;20039;-67
2023/10/25 11:07:53;;;;;;;9.82;3.97;;;13.00;81.70;;;;;;5081875;28;20032;-67
2023/10/25 11:10:19;;;;;;;8.73;3.70;;;13.00;81.70;;;;;;5090627;28;20028;-67
2023/10/25 11:12:45;;;;;;;8.95;4.03;;;13.00;81.80;;;;;;5073705;28;20047;-68
2023/10/25 11:15:12;;;;;;;9.93;4.13;;;13.00;81.80;;;;;;5073130;28;20098;-67
2023/10/25 11:17:38;;;;;;;10.57;4.63;;;13.10;81.80;;;;;;5089632;28;20024;-67
2023/10/25 11:20:05;;;;;;;6.93;3.60;;;13.10;81.80;;;;;;5089555;28;20157;-68
2023/10/25 11:22:31;;;;;;;8.98;3.88;;;13.10;81.80;;;;;;5090344;28;20394;-68
2023/10/25 11:25:08;;;;;;;9.10;4.07;;;13.10;81.80;;;;;;5066703;28;20037;-67
2023/10/25 11:27:35;;;;;;;10.05;3.40;;;13.10;81.80;;;;;;5071364;28;20200;-70
2023/10/25 11:30:03;;;;;;;9.27;3.38;;;13.10;81.80;;;;;;5088036;28;20107;-68
2023/10/25 11:32:29;;;;;;;10.55;3.65;;;13.20;81.90;;;;;;5077842;28;20093;-68
2023/10/25 11:34:59;;;;;;;7.78;3.80;;;13.20;81.90;;;;;;5087539;28;20024;-67
2023/10/25 11:37:39;;;;;;;9.05;3.80;;;13.20;81.90;;;;;;5080951;28;20107;-68
2023/10/25 11:40:06;;;;;;;7.80;3.85;;;13.20;81.90;;;;;;5090244;28;20051;-68
2023/10/25 11:42:33;;;;;;;8.48;3.72;;;13.20;81.90;;;;;;5089001;28;20028;-68
2023/10/25 11:45:00;;;;;;;9.32;3.95;;;13.20;81.90;;;;;;5084997;28;20542;-67
2023/10/25 11:47:26;;;;;;;6.80;3.47;;;13.20;81.90;;;;;;5085142;28;20025;-68
2023/10/25 11:49:55;;;;;;;9.85;3.78;;;13.30;81.90;;;;;;5087651;28;20456;-68
2023/10/25 11:52:25;;;;;;;6.85;3.22;;;13.30;81.90;;;;;;5087044;28;20411;-68
2023/10/25 11:54:55;;;;;;;7.70;3.20;;;13.30;81.90;;;;;;5088896;28;20039;-68
2023/10/25 11:57:32;;;;;;;7.30;3.38;;;13.30;81.90;;;;;;5089245;28;20063;-68
2023/10/25 11:59:58;;;;;;;7.78;3.30;;;13.30;82.00;;;;;;5086003;28;20044;-68
2023/10/25 12:02:26;;;;;;;9.10;3.28;;;13.30;81.90;;;;;;5072432;28;20024;-68
2023/10/25 12:04:53;;;;;;;8.35;4.13;;;13.30;82.00;;;;;;5088965;28;20023;-67
2023/10/25 12:07:22;;;;;;;9.48;4.50;;;13.30;82.00;;;;;;5089455;28;20159;-68
2023/10/25 12:09:52;;;;;;;7.45;3.60;;;13.30;82.10;;;;;;5071672;28;20164;-68
2023/10/25 12:12:19;;;;;;;8.50;4.18;;;13.30;82.10;;;;;;5071850;28;20386;-68
2023/10/25 12:14:44;;;;;;;7.05;3.78;;;13.30;82.20;;;;;;5058510;28;20028;-68
2023/10/25 12:17:10;;;;;;;8.90;4.22;;;13.20;82.20;;;;;;5090456;28;20020;-68
2023/10/25 12:19:36;;;;;;;9.00;3.88;;;13.20;82.30;;;;;;5087439;28;20024;-68
2023/10/25 12:22:09;;;;;;;10.30;4.45;;;13.20;82.40;;;;;;5073586;28;20040;-68
2023/10/25 12:24:37;;;;;;;8.73;4.07;;;13.20;82.40;;;;;;5088334;28;20020;-68
2023/10/25 12:27:04;;;;;;;8.13;4.20;;;13.20;82.50;;;;;;5086439;28;20063;-68
2023/10/25 12:29:30;;;;;;;8.10;4.55;;;13.20;82.50;;;;;;5086894;28;20052;-68
2023/10/25 12:31:56;;;;;;;8.95;3.80;;;13.20;82.60;;;;;;5086196;28;20032;-68
2023/10/25 12:34:23;;;;;;;8.10;3.92;;;13.20;82.70;;;;;;5071719;28;20039;-68
2023/10/25 12:36:49;;;;;;;8.18;3.33;;;13.20;82.70;;;;;;5087873;28;20473;-68
2023/10/25 12:39:16;;;;;;;8.45;3.10;;;13.20;82.70;;;;;;5095404;28;20024;-68
2023/10/25 12:41:42;;;;;;;6.72;3.22;;;13.20;82.70;;;;;;5072264;28;20387;-68
2023/10/25 12:44:08;;;;;;;8.25;3.30;;;13.20;82.70;;;;;;5086540;28;20028;-68
2023/10/25 12:46:40;;;;;;;5.13;2.65;;;13.30;82.70;;;;;;5087496;28;20464;-67
2023/10/25 12:49:07;;;;;;;7.07;2.88;;;13.30;82.60;;;;;;5084169;28;20028;-68